KVIH/VIH METAR and TAF weather

Enter ICAO airport designator
Station Type Date Time Source
KVIH METAR 2019/08/23 17:15 UTC NOAA

KVIH 231715Z AUTO 09005KT 10SM BKN011 BKN019 OVC048 23/21 A3010 RMK AO2 RAE11 P0000 T02280206


Station Type Date Time Source
KVIH Decoded METAR 2019/08/23 17:15 UTC NOAA

Station name not available
Aug 23, 2019 - 01:15 PM EDT / 2019.08.23 1715 UTC
Wind: from the E (090 degrees) at 6 MPH (5 KT):0
Visibility: 10 mile(s):0
Sky conditions: overcast
Precipitation last hour: A trace
Temperature: 73.0 F (22.8 C)
Dew Point: 69.1 F (20.6 C)
Relative Humidity: 87%
Pressure (altimeter): 30.1 in. Hg (1019 hPa)
ob: KVIH 231715Z AUTO 09005KT 10SM BKN011 BKN019 OVC048 23/21 A3010 RMK AO2 RAE11 P0000 T02280206
cycle: 17

Station Type Date Time Source
KVIH TAF UTC NOAA

Error!

Example: see airport list